الصفحة الرئيسية
METAR-TAF:

METAR-TAF

مطار :

Tarawa, كيريباس

دائرة عرض: 01-21N, خط طول: 172-55E, ارتفاع: 2 متر

مراقبة الطقس الحالي

تاريخ ووقت الإصدار 1ساعة و 0 دقيقة قبل الساعة 19:00UTC
ريح 5 عقدة من الشمال
درجة الحرارة 28°درجة مئوية
الرطوبة 84%
ضغط 1008 hPa
الرؤية 10 كم أو أكثر
غيوم قليلة على ارتفاع 2000 قدم

METAR: NGTA 221900Z 35005KT 9999 FEW020 28/25 Q1008

زمن: 10:00 (20:00 UTC)

توقعات

تاريخ ووقت الإصدار 2ساعات و 53 دقيقة قبل الساعة 17:07UTC
التوقعات صالحة من22 الساعة 18 UTC إلى 23 الساعة 18 UTC
ريح 6 عقدة من الشمال الشرقي
الرؤية 10 كم أو أكثر
غيوم متفرقة على ارتفاع 2000 قدم
غيوم مفككة على ارتفاع 4000 قدم

TAF: NGTA 221707Z 2218/2318 05006KT 9999 SCT020 BKN040

أرصاد الطقس والتوقعات من أكثر من 4000 مطار (تقارير الطقس للمطار METAR والتنبؤ بالطقس بالمطارTAF).

المحطات المتاحة هي النقط الصفراء والحمراء على الخريطة.

حرك المؤشر فوق النقطة لمعرفة اسم المحطة.

ثم انقر لمعرفة أرصاد وتوقعات الطقس.

لتغيير الخارطة: اضغط على الأزرار الخضراء مع رمز الصليب الأسود للتكبير. على الزر الأخضر مع شرطة للتصغير، أو على الأسهم الخضراء للخرائط المجاورة.


METAR-TAF: